Time;durP1;ratioP1;P1;durP2;ratioP2;P2;SDS_P1;SDS_P2;PMS_P1;PMS_P2;Temp;Humidity;BMP_temperature;BMP_pressure;BME280_temperature;BME280_humidity;BME280_pressure;Samples;Min_cycle;Max_cycle;Signal;HPM_P1;HPM_P2
2022/04/16 00:01:35;;;;;;;9.00;5.82;;;;;;;14.64;55.90;100179.28;4460242;32;32719;-87
2022/04/16 00:04:04;;;;;;;7.15;5.12;;;;;;;14.68;55.87;100175.50;4446403;32;32824;-85
2022/04/16 00:06:32;;;;;;;6.60;5.60;;;;;;;14.68;55.83;100175.50;4422682;32;32703;-84
2022/04/16 00:09:00;;;;;;;7.60;5.65;;;;;;;14.35;56.82;100168.38;4443340;32;34092;-84
2022/04/16 00:11:28;;;;;;;6.35;5.15;;;;;;;14.34;56.81;100170.19;4458220;32;33681;-85
2022/04/16 00:13:58;;;;;;;9.10;5.78;;;;;;;14.41;56.55;100165.38;4453713;32;33131;-86
2022/04/16 00:16:26;;;;;;;8.13;5.35;;;;;;;14.66;55.71;100158.78;4453163;32;31883;-83
2022/04/16 00:18:56;;;;;;;7.12;5.50;;;;;;;14.40;56.23;100158.38;4455121;32;33345;-87
2022/04/16 00:21:25;;;;;;;8.05;6.03;;;;;;;14.34;56.72;100153.41;4459722;32;33315;-83
2022/04/16 00:23:53;;;;;;;7.80;6.10;;;;;;;14.01;57.75;100154.22;4459223;32;33806;-84
2022/04/16 00:26:21;;;;;;;8.90;6.25;;;;;;;13.84;58.41;100146.28;4452755;32;33468;-85
2022/04/16 00:28:51;;;;;;;8.48;6.68;;;;;;;13.89;58.30;100154.84;4452924;32;32993;-84
2022/04/16 00:31:20;;;;;;;10.05;6.50;;;;;;;13.70;58.90;100154.09;4457695;32;33312;-87
2022/04/16 00:33:48;;;;;;;7.93;6.28;;;;;;;13.52;59.54;100156.72;4454196;32;33435;-88
2022/04/16 00:36:16;;;;;;;10.40;6.15;;;;;;;13.50;59.07;100153.31;4459874;32;33376;-89
2022/04/16 00:38:44;;;;;;;8.23;5.75;;;;;;;13.43;59.28;100162.47;4459826;32;33681;-88
2022/04/16 00:41:13;;;;;;;8.38;6.22;;;;;;;13.54;58.90;100159.31;4460515;32;33617;-87
2022/04/16 00:43:42;;;;;;;9.95;6.95;;;;;;;13.54;58.50;100144.25;4467793;32;33775;-87
2022/04/16 00:46:09;;;;;;;11.50;5.50;;;;;;;13.48;58.82;100149.88;4453082;32;32544;-87
2022/04/16 00:48:37;;;;;;;8.77;6.10;;;;;;;13.40;58.62;100140.59;4448153;32;33176;-87
2022/04/16 00:51:08;;;;;;;6.82;5.75;;;;;;;13.28;58.50;100147.34;4459354;32;34795;-87
2022/04/16 00:53:38;;;;;;;8.77;6.57;;;;;;;12.94;59.28;100142.78;4446952;32;33317;-87
2022/04/16 00:56:10;;;;;;;7.53;5.85;;;;;;;13.18;58.30;100146.91;4452644;32;32568;-87
2022/04/16 00:58:41;;;;;;;7.43;5.70;;;;;;;13.40;57.11;100136.13;4459084;32;34010;-87
2022/04/16 01:01:10;;;;;;;7.37;5.43;;;;;;;13.46;56.62;100132.31;4460248;32;33981;-85
2022/04/16 01:03:42;;;;;;;5.57;4.82;;;;;;;13.41;56.70;100126.38;4457780;32;33912;-86
2022/04/16 01:06:15;;;;;;;8.95;5.78;;;;;;;13.42;56.57;100128.09;4444803;32;31966;-85
2022/04/16 01:08:47;;;;;;;5.82;5.22;;;;;;;13.18;57.18;100124.81;4445048;32;32609;-85
2022/04/16 01:11:17;;;;;;;8.52;5.93;;;;;;;12.97;57.93;100127.59;4451438;32;33991;-85
2022/04/16 01:13:47;;;;;;;5.62;4.68;;;;;;;13.02;57.31;100122.94;4423754;32;34058;-88
2022/04/16 01:16:15;;;;;;;7.82;5.32;;;;;;;13.23;56.71;100120.19;4434666;32;32592;-88
2022/04/16 01:18:46;;;;;;;7.68;5.10;;;;;;;12.96;57.30;100127.66;4418415;32;32864;-87
2022/04/16 01:21:14;;;;;;;6.60;4.65;;;;;;;12.63;58.24;100130.12;4432890;32;33276;-87
2022/04/16 01:23:42;;;;;;;6.37;4.85;;;;;;;13.04;56.71;100129.00;4431335;32;33110;-88
2022/04/16 01:26:10;;;;;;;5.43;3.85;;;;;;;12.78;57.37;100130.28;4428735;32;32183;-90
2022/04/16 01:28:43;;;;;;;6.10;4.82;;;;;;;12.69;57.59;100120.09;4443770;32;35316;-89
2022/04/16 01:31:12;;;;;;;7.18;4.72;;;;;;;12.62;57.76;100120.47;4418233;32;33673;-90
2022/04/16 01:33:40;;;;;;;7.65;4.62;;;;;;;12.39;58.60;100126.81;4412248;32;32577;-87
2022/04/16 01:36:08;;;;;;;6.57;5.20;;;;;;;12.35;58.90;100118.19;4435561;32;32034;-88
2022/04/16 01:38:36;;;;;;;9.05;6.30;;;;;;;12.54;58.10;100116.41;4419325;32;32814;-87
2022/04/16 01:41:04;;;;;;;7.82;5.57;;;;;;;12.25;59.06;100116.88;4431065;32;33616;-86
2022/04/16 01:43:32;;;;;;;7.15;5.37;;;;;;;12.47;58.42;100130.84;4421044;32;34540;-86
2022/04/16 01:46:02;;;;;;;5.53;4.60;;;;;;;12.39;58.60;100130.34;4426107;32;33006;-85
2022/04/16 01:48:30;;;;;;;6.85;4.95;;;;;;;12.42;58.52;100134.63;4424376;32;33135;-87
2022/04/16 01:50:59;;;;;;;8.15;5.12;;;;;;;12.38;58.47;100133.91;4425028;32;33541;-87
2022/04/16 01:53:28;;;;;;;7.12;5.85;;;;;;;12.43;58.33;100139.00;4420892;32;33931;-87
2022/04/16 01:55:56;;;;;;;8.48;4.97;;;;;;;12.21;59.23;100139.13;4430510;32;32008;-87
2022/04/16 01:58:23;;;;;;;6.32;4.60;;;;;;;12.41;58.56;100135.56;4431736;32;34338;-87
2022/04/16 02:00:51;;;;;;;7.30;4.70;;;;;;;12.40;58.22;100136.50;4424860;32;34037;-90
2022/04/16 02:03:48;;;;;;;7.32;5.03;;;;;;;12.56;57.83;100141.00;4396364;32;34489;-94
2022/04/16 02:10:26;;;;;;;7.15;4.90;;;;;;;12.18;59.16;100147.19;4390744;32;33146;-93
2022/04/16 02:17:32;;;;;;;8.90;5.30;;;;;;;12.19;59.18;100143.62;4396568;32;34695;-92
2022/04/16 02:20:29;;;;;;;9.10;6.50;;;;;;;12.06;59.52;100148.63;4343503;32;33957;-92
2022/04/16 02:23:09;;;;;;;7.55;5.35;;;;;;;11.92;60.10;100141.28;4354834;32;33019;-93
2022/04/16 02:26:02;;;;;;;6.87;5.43;;;;;;;11.97;60.01;100144.59;4377502;32;33745;-92
2022/04/16 02:28:41;;;;;;;6.40;4.87;;;;;;;11.83;60.55;100135.53;4378902;32;32644;-91
2022/04/16 02:31:34;;;;;;;6.60;5.23;;;;;;;11.79;60.69;100126.81;4386147;32;33988;-92
2022/04/16 02:34:13;;;;;;;10.18;5.85;;;;;;;12.03;59.58;100135.50;4372899;32;33472;-93
2022/04/16 02:37:05;;;;;;;9.67;5.57;;;;;;;11.70;61.23;100135.16;4378171;32;32556;-92
2022/04/16 02:39:44;;;;;;;9.68;6.22;;;;;;;12.24;59.49;100131.03;4392165;32;32931;-92
2022/04/16 02:42:36;;;;;;;8.32;5.50;;;;;;;12.19;59.30;100125.09;4342888;32;31954;-92
2022/04/16 02:48:32;;;;;;;10.10;6.20;;;;;;;11.95;60.20;100122.59;4364838;32;20155;-92
2022/04/16 02:51:12;;;;;;;7.93;5.85;;;;;;;12.00;59.96;100119.75;4344178;33;32702;-91
2022/04/16 02:54:08;;;;;;;8.75;5.20;;;;;;;12.43;58.46;100112.50;4337392;33;32017;-90
2022/04/16 02:56:36;;;;;;;7.78;5.20;;;;;;;12.01;59.97;100111.75;4332356;33;33145;-90
2022/04/16 02:59:05;;;;;;;7.37;5.32;;;;;;;11.66;60.91;100104.47;4332160;33;33631;-88
2022/04/16 03:01:33;;;;;;;8.63;5.60;;;;;;;11.78;60.55;100109.25;4331988;33;31648;-88
2022/04/16 03:04:02;;;;;;;11.48;5.80;;;;;;;11.78;60.42;100110.09;4331769;33;32492;-88
2022/04/16 03:06:30;;;;;;;7.15;5.00;;;;;;;11.96;59.50;100111.13;4344020;33;33054;-88
2022/04/16 03:08:58;;;;;;;8.02;5.97;;;;;;;11.67;60.66;100108.81;4319739;33;32983;-89
2022/04/16 03:11:29;;;;;;;5.97;4.85;;;;;;;11.69;60.77;100107.00;4331047;33;32807;-88
2022/04/16 03:17:31;;;;;;;9.02;4.80;;;;;;;11.78;60.49;100101.31;4331401;33;32650;-88
2022/04/16 03:19:36;;;;;;;6.47;4.60;;;;;;;12.10;58.96;100106.97;4345432;32;33137;-89
2022/04/16 03:22:06;;;;;;;8.50;5.15;;;;;;;11.91;59.43;100107.78;4329916;33;33561;-88
2022/04/16 03:24:34;;;;;;;6.80;5.00;;;;;;;11.90;59.45;100113.16;4355987;32;33722;-88
2022/04/16 03:27:02;;;;;;;6.15;4.78;;;;;;;11.74;59.84;100116.44;4337591;33;32788;-89
2022/04/16 03:29:31;;;;;;;5.72;4.25;;;;;;;11.64;60.22;100114.28;4331593;33;32729;-88
2022/04/16 03:32:00;;;;;;;5.60;4.40;;;;;;;11.69;60.06;100117.56;4319567;33;32333;-88
2022/04/16 03:34:28;;;;;;;5.78;4.12;;;;;;;12.02;58.70;100116.13;4331661;33;33016;-88
2022/04/16 03:36:57;;;;;;;7.50;3.72;;;;;;;12.01;58.77;100122.34;4331660;33;34004;-88
2022/04/16 03:39:24;;;;;;;5.50;3.78;;;;;;;11.89;59.07;100129.97;4331585;33;32686;-88
2022/04/16 03:41:52;;;;;;;8.95;4.68;;;;;;;11.71;59.69;100142.16;4343444;32;33570;-89
2022/04/16 03:44:20;;;;;;;6.50;4.10;;;;;;;11.56;59.94;100133.09;4330719;33;33235;-89
2022/04/16 03:46:48;;;;;;;5.85;3.50;;;;;;;11.07;61.86;100129.84;4319899;33;33948;-90
2022/04/16 03:49:16;;;;;;;8.57;3.70;;;;;;;10.94;62.46;100124.19;4334495;33;33420;-90
2022/04/16 03:51:46;;;;;;;5.30;3.65;;;;;;;11.30;61.13;100121.00;4346231;33;32280;-89
2022/04/16 04:00:03;;;;;;;6.70;3.10;;;;;;;11.37;60.88;100133.00;4329494;33;32516;-91
2022/04/16 04:02:38;;;;;;;4.10;2.80;;;;;;;11.39;60.77;100135.59;4356527;32;32782;-88
2022/04/16 04:05:08;;;;;;;5.05;3.10;;;;;;;11.41;60.73;100131.97;4370457;32;33781;-90
2022/04/16 04:07:36;;;;;;;4.40;3.60;;;;;;;11.33;61.06;100139.34;4347763;32;33669;-90
2022/04/16 04:10:04;;;;;;;5.03;3.37;;;;;;;11.38;60.75;100137.38;4358530;32;32339;-89
2022/04/16 04:12:32;;;;;;;4.55;3.15;;;;;;;11.49;60.41;100144.88;4356412;32;33707;-91
2022/04/16 04:15:06;;;;;;;5.93;3.60;;;;;;;11.24;61.36;100142.37;4345461;32;33138;-90
2022/04/16 04:17:48;;;;;;;6.07;4.07;;;;;;;11.50;60.30;100143.94;4370513;32;32896;-90
2022/04/16 04:20:28;;;;;;;5.30;3.87;;;;;;;11.26;61.19;100156.41;4356973;32;33190;-94
2022/04/16 04:23:10;;;;;;;5.70;3.62;;;;;;;11.16;61.57;100157.69;4376082;32;32575;-95
2022/04/16 04:26:03;;;;;;;4.65;4.10;;;;;;;11.09;62.16;100161.50;4344217;32;32311;-94
2022/04/16 04:28:43;;;;;;;6.32;3.70;;;;;;;11.42;61.06;100152.19;4352705;32;33499;-95
2022/04/16 04:31:26;;;;;;;6.00;4.10;;;;;;;10.99;62.55;100161.84;4339510;32;33878;-86
2022/04/16 04:33:56;;;;;;;5.03;3.97;;;;;;;11.07;62.51;100156.28;4377071;32;34012;-86
2022/04/16 04:36:24;;;;;;;5.57;3.83;;;;;;;11.33;61.69;100162.28;4361918;32;33360;-87
2022/04/16 04:38:52;;;;;;;7.78;4.68;;;;;;;11.45;61.09;100156.50;4375951;32;34476;-86
2022/04/16 04:41:23;;;;;;;7.62;5.15;;;;;;;11.79;59.79;100167.38;4364930;32;33923;-87
2022/04/16 04:43:56;;;;;;;5.80;4.53;;;;;;;11.79;59.62;100172.66;4376787;32;33390;-87
2022/04/16 04:46:27;;;;;;;7.30;4.65;;;;;;;11.66;60.12;100182.03;4351726;32;33353;-87
2022/04/16 04:48:57;;;;;;;7.65;4.78;;;;;;;11.53;60.71;100171.09;4361597;32;34360;-87
2022/04/16 04:51:26;;;;;;;5.70;4.35;;;;;;;11.51;60.85;100175.59;4374421;32;32970;-87
2022/04/16 04:53:54;;;;;;;8.13;5.00;;;;;;;11.41;61.20;100179.56;4374037;32;33583;-87
2022/04/16 04:56:22;;;;;;;6.70;4.15;;;;;;;11.46;61.35;100184.66;4362983;32;32602;-85
2022/04/16 04:58:49;;;;;;;7.87;4.30;;;;;;;11.43;61.50;100180.34;4376255;32;33718;-85
2022/04/16 05:01:19;;;;;;;5.50;4.15;;;;;;;11.36;61.86;100184.19;4349424;32;32779;-85
2022/04/16 05:03:48;;;;;;;5.07;3.87;;;;;;;11.70;60.49;100188.06;4361984;32;34581;-85
2022/04/16 05:06:18;;;;;;;4.07;3.17;;;;;;;11.87;60.22;100195.31;4364070;32;32338;-85
2022/04/16 05:08:48;;;;;;;6.25;4.68;;;;;;;11.68;60.63;100182.84;4362046;32;33031;-86
2022/04/16 05:11:15;;;;;;;5.80;3.87;;;;;;;11.70;60.45;100180.13;4363941;32;33173;-85
2022/04/16 05:13:49;;;;;;;5.70;3.40;;;;;;;11.99;59.53;100194.78;4351523;32;33157;-84
2022/04/16 05:16:19;;;;;;;4.87;4.03;;;;;;;11.98;59.23;100193.94;4363609;32;33016;-83
2022/04/16 05:18:58;;;;;;;5.05;3.37;;;;;;;12.13;58.61;100191.53;4376133;32;33701;-85
2022/04/16 05:21:31;;;;;;;6.62;4.00;;;;;;;12.16;58.41;100194.94;4363206;32;33386;-85
2022/04/16 05:24:00;;;;;;;5.95;3.60;;;;;;;12.10;58.87;100200.47;4361046;32;32629;-86
2022/04/16 05:26:30;;;;;;;3.80;3.22;;;;;;;11.88;59.68;100199.69;4376289;32;33439;-86
2022/04/16 05:29:00;;;;;;;6.50;3.40;;;;;;;12.13;58.38;100202.13;4363424;32;33386;-87
2022/04/16 05:31:31;;;;;;;5.32;4.00;;;;;;;12.35;57.60;100207.34;4361286;32;33072;-85
2022/04/16 05:34:19;;;;;;;4.53;3.35;;;;;;;12.41;57.18;100207.94;4362843;32;32825;-85
2022/04/16 05:39:28;;;;;;;6.55;3.78;;;;;;;12.24;58.36;100215.75;4373529;32;33701;-84
2022/04/16 05:41:57;;;;;;;7.15;3.47;;;;;;;12.61;56.55;100216.75;4375394;32;34091;-85
2022/04/16 05:44:33;;;;;;;5.18;3.12;;;;;;;12.50;56.77;100214.59;4377260;32;34489;-84
2022/04/16 05:47:14;;;;;;;4.35;2.87;;;;;;;12.47;57.22;100215.59;4376408;32;35089;-84
2022/04/16 05:50:05;;;;;;;3.75;2.78;;;;;;;12.33;57.37;100214.50;4363455;32;33858;-84
2022/04/16 05:52:34;;;;;;;4.40;3.05;;;;;;;12.52;56.80;100220.69;4365792;32;33899;-84
2022/04/16 05:55:09;;;;;;;5.53;3.20;;;;;;;12.60;56.34;100218.56;4353597;32;32228;-84
2022/04/16 05:57:38;;;;;;;4.43;3.40;;;;;;;12.56;56.13;100217.81;4365739;32;32674;-85
2022/04/16 06:05:16;;;;;;;4.35;3.17;;;;;;;12.12;57.39;100229.53;4377279;32;33879;-85
2022/04/16 06:07:53;;;;;;;8.35;3.10;;;;;;;12.22;57.29;100230.84;4377420;32;33322;-85
2022/04/16 06:10:25;;;;;;;3.50;2.72;;;;;;;12.29;56.96;100229.66;4374894;32;33914;-85
2022/04/16 06:12:54;;;;;;;3.60;2.60;;;;;;;12.38;56.45;100234.53;4364593;32;33873;-84
2022/04/16 06:15:27;;;;;;;3.22;2.75;;;;;;;12.05;58.00;100229.78;4376674;32;33035;-86
2022/04/16 06:18:04;;;;;;;4.35;2.97;;;;;;;12.20;56.71;100225.62;4346632;32;32587;-85
2022/04/16 06:20:51;;;;;;;5.45;3.25;;;;;;;12.11;56.84;100230.47;4363364;32;33645;-86
2022/04/16 06:23:23;;;;;;;5.70;3.00;;;;;;;11.90;57.26;100227.78;4351384;32;33141;-86
2022/04/16 06:25:52;;;;;;;2.97;2.60;;;;;;;12.07;56.97;100234.16;4378021;32;33779;-85
2022/04/16 06:28:26;;;;;;;5.15;3.08;;;;;;;12.14;56.83;100232.97;4354010;32;33178;-87
2022/04/16 06:30:56;;;;;;;4.25;3.37;;;;;;;12.15;56.99;100237.31;4350550;32;32957;-88
2022/04/16 06:33:24;;;;;;;5.15;3.17;;;;;;;12.18;56.85;100242.50;4377587;32;32995;-88
2022/04/16 06:35:56;;;;;;;4.12;3.30;;;;;;;12.07;57.67;100245.62;4365667;32;32292;-88
2022/04/16 06:38:40;;;;;;;3.10;2.35;;;;;;;12.50;55.84;100235.78;4343394;32;31764;-92
2022/04/16 06:41:27;;;;;;;4.15;3.03;;;;;;;12.34;56.86;100247.97;4354029;32;33220;-86
2022/04/16 06:43:56;;;;;;;6.05;2.70;;;;;;;12.59;55.48;100245.97;4359511;32;34137;-89
2022/04/16 06:46:30;;;;;;;4.25;2.53;;;;;;;12.63;55.22;100238.72;4349164;32;33081;-89
2022/04/16 06:49:07;;;;;;;;;;;;;;;12.90;55.21;100245.44;4361318;32;33431;-86
2022/04/16 06:51:35;;;;;;;4.20;2.80;;;;;;;13.26;54.43;100239.38;4340302;32;32487;-87
2022/04/16 06:54:06;;;;;;;3.53;2.87;;;;;;;13.43;53.73;100246.50;4341326;32;33735;-86
2022/04/16 06:56:36;;;;;;;2.75;2.40;;;;;;;13.68;53.30;100246.19;4354990;32;31858;-86
2022/04/16 06:59:04;;;;;;;5.00;2.65;;;;;;;13.82;52.88;100233.09;4360632;32;34334;-85
2022/04/16 07:01:32;;;;;;;4.53;2.80;;;;;;;13.88;52.74;100242.53;4349442;32;32521;-84
2022/04/16 07:04:11;;;;;;;3.72;2.58;;;;;;;14.02;52.17;100235.59;4361856;32;34737;-86
2022/04/16 07:06:45;;;;;;;12.68;3.55;;;;;;;13.77;53.80;100248.41;4342949;32;33261;-85
2022/04/16 07:09:25;;;;;;;5.43;3.20;;;;;;;14.18;51.73;100240.13;4359885;32;31737;-85
2022/04/16 07:11:55;;;;;;;4.17;3.67;;;;;;;13.87;51.59;100244.34;4359629;32;35186;-86
2022/04/16 07:14:26;;;;;;;4.47;2.97;;;;;;;14.06;51.32;100241.63;4342177;32;33131;-87
2022/04/16 07:16:57;;;;;;;7.68;3.70;;;;;;;14.30;50.47;100244.81;4353302;32;33069;-87
2022/04/16 07:19:26;;;;;;;3.70;2.87;;;;;;;13.94;52.01;100259.00;4348197;32;34358;-87
2022/04/16 07:21:55;;;;;;;3.20;2.60;;;;;;;13.79;52.13;100250.03;4343389;32;32662;-86
2022/04/16 07:24:28;;;;;;;5.18;2.87;;;;;;;14.28;49.71;100246.66;4344374;32;33786;-86
2022/04/16 07:27:05;;;;;;;3.17;2.37;;;;;;;13.96;49.96;100243.87;4352836;32;32881;-86
2022/04/16 07:29:33;;;;;;;4.30;3.08;;;;;;;13.95;50.35;100247.44;4359939;32;33398;-86
2022/04/16 07:32:01;;;;;;;4.47;3.03;;;;;;;13.92;51.35;100247.63;4353265;32;33486;-85
2022/04/16 07:34:32;;;;;;;6.28;3.05;;;;;;;14.25;50.50;100253.00;4350396;32;34642;-86
2022/04/16 07:37:05;;;;;;;3.30;2.97;;;;;;;14.28;49.73;100257.28;4348092;32;32524;-86
2022/04/16 07:39:44;;;;;;;3.40;2.20;;;;;;;14.19;50.84;100253.31;4358867;32;32418;-86
2022/04/16 07:42:36;;;;;;;3.65;2.67;;;;;;;14.34;50.54;100257.00;4354453;32;33112;-87
2022/04/16 07:45:07;;;;;;;5.30;3.37;;;;;;;14.34;50.20;100264.97;4353929;32;32852;-86
2022/04/16 07:47:36;;;;;;;2.90;2.60;;;;;;;14.43;49.92;100268.91;4356781;32;32910;-86
2022/04/16 07:52:51;;;;;;;2.53;2.30;;;;;;;14.64;49.31;100267.84;4363062;32;33036;-87
2022/04/16 07:58:06;;;;;;;3.95;2.47;;;;;;;14.93;47.68;100271.59;4358133;32;34112;-87
2022/04/16 08:00:47;;;;;;;4.50;2.17;;;;;;;14.95;47.80;100269.69;4361547;32;34051;-86
2022/04/16 08:03:26;;;;;;;2.65;1.83;;;;;;;14.97;48.19;100267.81;4362294;32;33940;-86
2022/04/16 08:05:59;;;;;;;3.37;2.17;;;;;;;14.93;46.15;100266.28;4352328;32;33868;-87
2022/04/16 08:08:28;;;;;;;3.03;2.50;;;;;;;14.89;46.10;100274.50;4360869;32;32857;-87
2022/04/16 08:10:56;;;;;;;2.75;2.00;;;;;;;14.94;47.82;100277.75;4337189;32;34788;-86
2022/04/16 08:13:29;;;;;;;2.60;2.40;;;;;;;14.35;49.79;100278.16;4359308;32;31520;-87
2022/04/16 08:15:59;;;;;;;2.78;1.70;;;;;;;14.97;47.58;100273.12;4359414;32;33601;-87
2022/04/16 08:18:32;;;;;;;2.58;1.75;;;;;;;15.15;46.76;100268.63;4357599;32;32046;-87
2022/04/16 08:21:07;;;;;;;2.70;1.90;;;;;;;15.28;46.33;100276.75;4361252;32;32381;-87
2022/04/16 08:23:56;;;;;;;2.65;1.87;;;;;;;15.34;46.59;100273.78;4355980;32;34856;-87
2022/04/16 08:26:32;;;;;;;2.05;1.70;;;;;;;15.36;45.87;100274.53;4347685;32;33677;-87
2022/04/16 08:29:09;;;;;;;2.35;2.12;;;;;;;15.15;47.03;100281.06;4358851;32;32918;-86
2022/04/16 08:31:42;;;;;;;2.55;1.77;;;;;;;15.58;46.10;100279.53;4358526;32;34288;-86
2022/04/16 08:34:31;;;;;;;1.92;1.60;;;;;;;15.25;46.05;100287.59;4338288;32;35416;-86
2022/04/16 08:37:01;;;;;;;2.67;1.75;;;;;;;15.50;45.83;100289.75;4354042;32;33049;-86
2022/04/16 08:39:36;;;;;;;3.08;1.83;;;;;;;15.68;45.40;100282.56;4354975;32;33169;-86
2022/04/16 08:42:11;;;;;;;2.47;1.98;;;;;;;15.59;46.19;100281.25;4361024;32;31572;-86
2022/04/16 08:44:42;;;;;;;2.78;1.60;;;;;;;15.50;46.05;100282.59;4341550;32;32800;-86
2022/04/16 08:50:04;;;;;;;1.87;1.55;;;;;;;15.61;45.17;100282.00;4337220;32;33315;-86
2022/04/16 08:52:36;;;;;;;3.37;1.65;;;;;;;15.32;46.34;100294.28;4357618;32;33117;-86
2022/04/16 08:55:09;;;;;;;3.03;1.52;;;;;;;15.10;46.33;100290.16;4345349;32;33977;-86
2022/04/16 08:57:42;;;;;;;1.87;1.27;;;;;;;15.11;46.28;100294.53;4348635;32;31985;-86
2022/04/16 09:00:13;;;;;;;2.15;1.15;;;;;;;15.00;47.03;100288.94;4360939;32;33325;-86
2022/04/16 09:02:56;;;;;;;2.28;1.55;;;;;;;15.04;47.25;100295.78;4356227;32;33250;-87
2022/04/16 09:05:33;;;;;;;2.45;1.67;;;;;;;15.31;46.29;100297.87;4362208;32;33334;-86
2022/04/16 09:08:04;;;;;;;4.53;2.40;;;;;;;14.74;47.39;100298.28;4360258;32;33886;-87
2022/04/16 09:10:43;;;;;;;8.15;1.17;;;;;;;15.06;45.99;100295.72;4357896;32;32164;-86
2022/04/16 09:13:21;;;;;;;1.85;1.67;;;;;;;14.96;46.68;100292.72;4358853;32;32167;-86
2022/04/16 09:15:50;;;;;;;2.95;1.77;;;;;;;14.99;46.52;100308.47;4360419;32;32986;-87
2022/04/16 09:18:20;;;;;;;1.75;1.37;;;;;;;14.82;46.58;100303.22;4353083;32;33059;-86
2022/04/16 09:20:52;;;;;;;1.55;1.12;;;;;;;14.56;47.63;100309.88;4365498;32;32624;-86
2022/04/16 09:23:25;;;;;;;1.55;1.20;;;;;;;14.58;47.81;100308.88;4355818;32;33349;-87
2022/04/16 09:26:06;;;;;;;2.87;1.20;;;;;;;14.82;47.27;100311.19;4348953;32;33857;-87
2022/04/16 09:28:43;;;;;;;2.03;1.35;;;;;;;14.74;46.75;100310.72;4355599;32;34169;-86
2022/04/16 09:31:19;;;;;;;2.12;1.05;;;;;;;14.79;46.27;100314.00;4362790;32;33397;-87
2022/04/16 09:33:51;;;;;;;1.98;1.35;;;;;;;14.57;47.19;100317.81;4365076;32;33010;-87
2022/04/16 09:36:27;;;;;;;1.62;1.23;;;;;;;14.84;46.36;100315.47;4365124;32;34497;-86
2022/04/16 09:39:04;;;;;;;2.25;1.62;;;;;;;14.91;46.57;100307.16;4354061;32;32743;-86
2022/04/16 09:41:40;;;;;;;2.55;1.58;;;;;;;15.09;46.72;100308.84;4340361;32;33965;-86
2022/04/16 09:49:44;;;;;;;2.67;1.92;;;;;;;15.21;45.86;100302.88;4357894;32;34029;-86
2022/04/16 09:52:24;;;;;;;1.20;1.08;;;;;;;15.06;47.30;100293.91;4340078;32;32915;-86
2022/04/16 09:55:01;;;;;;;2.22;1.42;;;;;;;15.16;46.72;100302.25;4346436;32;32690;-86
2022/04/16 09:57:39;;;;;;;2.47;1.27;;;;;;;15.26;46.58;100305.28;4338142;32;33291;-87
2022/04/16 10:05:35;;;;;;;1.62;1.05;;;;;;;15.48;45.43;100300.47;4356036;32;32612;-87
2022/04/16 10:08:13;;;;;;;3.70;1.33;;;;;;;15.86;44.58;100300.16;4346911;32;36080;-87
2022/04/16 10:13:33;;;;;;;2.35;1.40;;;;;;;15.74;44.55;100300.84;4350046;32;33893;-87
2022/04/16 10:16:10;;;;;;;2.35;1.30;;;;;;;15.65;45.35;100298.69;4357048;32;33678;-88
2022/04/16 10:18:42;;;;;;;2.45;1.17;;;;;;;15.62;44.81;100297.91;4334219;32;34024;-87
2022/04/16 10:21:22;;;;;;;3.10;1.30;;;;;;;15.48;45.71;100300.47;4337027;32;34027;-87
2022/04/16 10:24:00;;;;;;;1.23;0.98;;;;;;;15.44;45.06;100301.59;4356405;32;33769;-87
2022/04/16 10:26:43;;;;;;;2.35;1.55;;;;;;;15.91;43.40;100290.09;4326618;32;33159;-87
2022/04/16 10:29:19;;;;;;;2.58;1.60;;;;;;;15.52;44.81;100296.69;4344903;32;33005;-87
2022/04/16 10:31:55;;;;;;;1.95;1.45;;;;;;;15.25;45.20;100295.56;4352303;32;33300;-87
2022/04/16 10:34:34;;;;;;;1.48;1.02;;;;;;;15.35;45.00;100299.44;4358897;32;32837;-87
2022/04/16 10:37:22;;;;;;;1.23;0.90;;;;;;;16.01;43.03;100301.06;4331878;32;33496;-87
2022/04/16 10:39:53;;;;;;;1.20;1.10;;;;;;;16.00;43.28;100296.66;4360745;32;33864;-87
2022/04/16 10:42:33;;;;;;;1.42;0.82;;;;;;;15.60;43.79;100299.78;4360678;32;33459;-87
2022/04/16 10:45:35;;;;;;;1.10;0.75;;;;;;;15.65;44.40;100296.03;4361468;32;34574;-86
2022/04/16 10:48:13;;;;;;;0.90;0.82;;;;;;;15.98;43.04;100294.09;4363881;32;32447;-87
2022/04/16 10:50:44;;;;;;;2.03;1.33;;;;;;;15.91;44.01;100291.87;4363798;32;34008;-87
2022/04/16 10:53:15;;;;;;;1.62;1.15;;;;;;;15.75;43.93;100287.44;4340834;32;34554;-87
2022/04/16 10:55:49;;;;;;;1.00;0.90;;;;;;;15.91;42.62;100295.41;4362301;32;33792;-87
2022/04/16 10:58:28;;;;;;;2.10;1.45;;;;;;;16.08;42.27;100289.94;4365822;32;32772;-87
2022/04/16 11:01:07;;;;;;;13.07;8.45;;;;;;;16.01;42.89;100288.59;4363257;32;33599;-87
2022/04/16 11:03:48;;;;;;;4.28;3.47;;;;;;;15.97;42.36;100287.06;4363854;32;33102;-87
2022/04/16 11:06:18;;;;;;;1.42;1.00;;;;;;;16.26;42.01;100287.16;4364124;32;34144;-88
2022/04/16 11:08:51;;;;;;;3.83;2.37;;;;;;;16.37;40.86;100288.19;4357580;32;32036;-87
2022/04/16 11:11:23;;;;;;;2.37;1.30;;;;;;;16.20;41.75;100292.84;4363322;32;33953;-87
2022/04/16 11:13:59;;;;;;;1.12;1.00;;;;;;;16.11;41.33;100289.75;4366293;32;34089;-87
2022/04/16 11:16:49;;;;;;;1.42;1.12;;;;;;;15.82;42.35;100294.13;4351247;32;32626;-87
2022/04/16 11:19:17;;;;;;;1.25;0.80;;;;;;;15.58;42.76;100291.03;4363433;32;32961;-87
2022/04/16 11:21:49;;;;;;;1.17;1.00;;;;;;;15.93;41.39;100292.66;4355897;32;34353;-87
2022/04/16 11:24:19;;;;;;;0.98;0.60;;;;;;;15.99;41.81;100295.78;4343846;32;35166;-87
2022/04/16 11:35:23;;;;;;;1.60;0.82;;;;;;;15.87;41.74;100293.88;4364596;32;34395;-87
2022/04/16 11:37:53;;;;;;;1.10;0.90;;;;;;;15.86;42.33;100292.16;4335263;32;33963;-88
2022/04/16 11:40:22;;;;;;;0.93;0.75;;;;;;;15.87;42.17;100292.06;4364974;32;34429;-88
2022/04/16 11:42:54;;;;;;;1.27;0.80;;;;;;;16.15;41.67;100290.44;4353034;32;34560;-88
2022/04/16 11:48:04;;;;;;;0.55;0.47;;;;;;;15.51;43.41;100294.97;4356698;32;33606;-88
2022/04/16 11:50:39;;;;;;;0.95;0.62;;;;;;;15.27;46.23;100297.19;4351955;32;32692;-88
2022/04/16 11:53:14;;;;;;;2.75;0.85;;;;;;;14.93;46.62;100298.19;4353527;32;34592;-86
2022/04/16 11:55:46;;;;;;;0.80;0.80;;;;;;;14.89;50.72;100307.25;4361947;32;32454;-87
2022/04/16 11:58:16;;;;;;;0.75;0.75;;;;;;;14.60;53.03;100312.31;4351837;32;33148;-87
2022/04/16 12:08:58;;;;;;;1.23;1.00;;;;;;;14.69;50.14;100299.50;4356121;32;33041;-85
2022/04/16 12:11:28;;;;;;;0.88;0.77;;;;;;;14.59;49.98;100299.97;4348982;32;32101;-85
2022/04/16 12:13:58;;;;;;;1.30;0.90;;;;;;;14.78;49.72;100293.69;4360324;32;33612;-86
2022/04/16 12:16:36;;;;;;;1.58;1.08;;;;;;;14.64;49.67;100280.28;4346416;32;31177;-86
2022/04/16 12:19:10;;;;;;;2.65;1.83;;;;;;;14.97;49.42;100282.94;4358969;32;32538;-86
2022/04/16 12:21:45;;;;;;;2.35;1.23;;;;;;;15.32;48.61;100273.84;4350045;32;34703;-86
2022/04/16 12:24:25;;;;;;;4.78;0.95;;;;;;;15.61;44.92;100268.69;4363079;32;33313;-86
2022/04/16 12:26:59;;;;;;;1.55;1.00;;;;;;;15.82;47.31;100261.31;4353150;32;34245;-85
2022/04/16 12:29:30;;;;;;;2.45;1.62;;;;;;;15.95;44.00;100267.66;4353960;32;33910;-86
2022/04/16 12:32:09;;;;;;;2.97;1.30;;;;;;;16.00;43.11;100262.03;4363467;32;32390;-86
2022/04/16 12:34:41;;;;;;;1.52;1.12;;;;;;;16.34;42.43;100258.25;4350855;32;32874;-86
2022/04/16 12:37:11;;;;;;;1.80;0.80;;;;;;;16.53;44.32;100248.16;4360950;32;35078;-86
2022/04/16 12:39:54;;;;;;;0.85;0.70;;;;;;;16.97;39.23;100249.91;4362917;32;34490;-86
2022/04/16 12:42:30;;;;;;;3.87;1.60;;;;;;;16.99;38.84;100258.66;4364174;32;34062;-86
2022/04/16 12:45:00;;;;;;;2.73;1.77;;;;;;;17.07;38.72;100244.84;4345976;32;35318;-86
2022/04/16 12:50:12;;;;;;;1.05;0.95;;;;;;;16.71;38.30;100250.63;4365051;32;32965;-86
2022/04/16 12:52:49;;;;;;;1.80;0.60;;;;;;;16.74;39.70;100253.16;4361450;32;33441;-86
2022/04/16 12:55:20;;;;;;;1.25;0.80;;;;;;;16.80;39.76;100250.09;4351930;32;34029;-85
2022/04/16 12:57:55;;;;;;;1.92;1.15;;;;;;;17.21;38.44;100246.66;4353436;32;32114;-85
2022/04/16 13:00:31;;;;;;;0.75;0.55;;;;;;;17.21;37.34;100247.50;4350438;32;33956;-85
2022/04/16 13:03:03;;;;;;;0.88;0.73;;;;;;;17.03;36.43;100251.34;4352809;32;32350;-86
2022/04/16 13:05:40;;;;;;;2.30;0.60;;;;;;;17.08;38.79;100244.75;4339984;32;34465;-86